Time;durP1;ratioP1;P1;durP2;ratioP2;P2;SDS_P1;SDS_P2;PMS_P1;PMS_P2;Temp;Humidity;BMP_temperature;BMP_pressure;BME280_temperature;BME280_humidity;BME280_pressure;Samples;Min_cycle;Max_cycle;Signal;HPM_P1;HPM_P2
2022/04/27 00:01:15;;;;;;;25.13;11.48;;;;;;;;;;4947385;29;20052;-75
2022/04/27 00:03:43;;;;;;;24.25;11.75;;;;;;;;;;4934412;29;20047;-75
2022/04/27 00:06:10;;;;;;;28.27;11.70;;;;;;;;;;4950215;29;20055;-75
2022/04/27 00:08:38;;;;;;;28.83;12.25;;;;;;;;;;4943162;29;20079;-75
2022/04/27 00:11:05;;;;;;;22.42;11.60;;;;;;;;;;4930046;29;20056;-75
2022/04/27 00:13:32;;;;;;;28.38;11.80;;;;;;;;;;4919234;29;20055;-70
2022/04/27 00:16:00;;;;;;;23.73;10.43;;;;;;;;;;4929745;29;20047;-70
2022/04/27 00:18:27;;;;;;;23.42;10.73;;;;;;;;;;4922006;29;20130;-70
2022/04/27 00:20:55;;;;;;;22.10;11.32;;;;;;;;;;4938947;29;20532;-70
2022/04/27 00:23:25;;;;;;;19.40;9.40;;;;;;;;;;4948277;28;20745;-70
2022/04/27 00:25:52;;;;;;;28.05;10.10;;;;;;;;;;4949496;29;20062;-70
2022/04/27 00:28:19;;;;;;;17.23;8.90;;;;;;;;;;4946639;29;20161;-70
2022/04/27 00:34:12;;;;;;;18.48;9.38;;;;;;;;;;4900013;29;20553;-70
2022/04/27 00:36:39;;;;;;;20.90;10.00;;;;;;;;;;4892221;29;20139;-70
2022/04/27 00:39:06;;;;;;;23.52;11.25;;;;;;;;;;4891825;29;20100;-70
2022/04/27 00:41:33;;;;;;;25.08;11.65;;;;;;;;;;4880694;29;20120;-70
2022/04/27 00:44:01;;;;;;;24.70;12.00;;;;;;;;;;4893574;29;20084;-70
2022/04/27 00:46:28;;;;;;;26.50;10.68;;;;;;;;;;4892465;29;20143;-70
2022/04/27 00:48:55;;;;;;;21.58;10.52;;;;;;;;;;5136005;23;20224;-75
2022/04/27 00:51:24;;;;;;;28.15;12.57;;;;;;;;;;4930774;29;20131;-75
2022/04/27 00:53:51;;;;;;;24.20;11.25;;;;;;;;;;4931981;29;20063;-75
2022/04/27 00:56:21;;;;;;;23.50;11.00;;;;;;;;;;4952940;28;20098;-75
2022/04/27 00:58:48;;;;;;;20.60;10.25;;;;;;;;;;4950988;28;20145;-75
2022/04/27 01:01:18;;;;;;;20.08;10.95;;;;;;;;;;4946529;29;20081;-75
2022/04/27 01:03:46;;;;;;;33.08;12.93;;;;;;;;;;4949338;29;20098;-75
2022/04/27 01:06:13;;;;;;;22.33;10.48;;;;;;;;;;4951917;28;20226;-75
2022/04/27 01:08:40;;;;;;;20.35;10.85;;;;;;;;;;4956039;28;20101;-76
2022/04/27 01:11:08;;;;;;;24.63;11.27;;;;;;;;;;4932107;29;20082;-75
2022/04/27 01:13:37;;;;;;;22.77;11.52;;;;;;;;;;4948855;29;20485;-75
2022/04/27 01:16:04;;;;;;;20.98;10.55;;;;;;;;;;4960546;28;20082;-75
2022/04/27 01:18:31;;;;;;;23.10;11.07;;;;;;;;;;4953940;28;20047;-75
2022/04/27 01:20:59;;;;;;;19.35;10.32;;;;;;;;;;4968142;28;20078;-74
2022/04/27 01:23:26;;;;;;;21.95;9.90;;;;;;;;;;4946660;29;20047;-74
2022/04/27 01:25:54;;;;;;;18.08;8.68;;;;;;;;;;4932465;28;20150;-75
2022/04/27 01:28:23;;;;;;;21.95;9.60;;;;;;;;;;4968418;28;20131;-75
2022/04/27 01:31:16;;;;;;;19.17;10.02;;;;;;;;;;4967693;28;20135;-74
2022/04/27 01:33:43;;;;;;;19.40;9.70;;;;;;;;;;4953324;28;20050;-75
2022/04/27 01:36:13;;;;;;;27.17;9.60;;;;;;;;;;4967674;28;20149;-75
2022/04/27 01:38:41;;;;;;;18.65;10.23;;;;;;;;;;4933491;29;20113;-74
2022/04/27 01:41:09;;;;;;;25.40;9.93;;;;;;;;;;4948339;29;20172;-74
2022/04/27 01:43:37;;;;;;;19.08;10.52;;;;;;;;;;4940612;29;20134;-74
2022/04/27 01:46:07;;;;;;;19.65;9.68;;;;;;;;;;4948358;29;20129;-74
2022/04/27 01:48:35;;;;;;;22.02;10.65;;;;;;;;;;4931302;29;20086;-74
2022/04/27 01:51:02;;;;;;;25.70;12.68;;;;;;;;;;4937999;28;20082;-74
2022/04/27 01:56:15;;;;;;;19.23;10.18;;;;;;;;;;4963069;28;20089;-74
2022/04/27 01:58:42;;;;;;;23.33;10.98;;;;;;;;;;4947948;29;20051;-74
2022/04/27 02:01:13;;;;;;;23.75;11.75;;;;;;;;;;4951222;28;20133;-74
2022/04/27 02:03:40;;;;;;;28.92;12.18;;;;;;;;;;4947458;28;20051;-74
2022/04/27 02:06:08;;;;;;;28.05;12.45;;;;;;;;;;4966407;28;20051;-74
2022/04/27 02:08:36;;;;;;;22.25;10.88;;;;;;;;;;4966397;28;20166;-73
2022/04/27 02:11:03;;;;;;;20.65;9.27;;;;;;;;;;4963052;28;20137;-73
2022/04/27 02:13:30;;;;;;;19.23;10.32;;;;;;;;;;4951128;28;20082;-74
2022/04/27 02:16:00;;;;;;;18.40;8.20;;;;;;;;;;4965207;28;20146;-74
2022/04/27 02:18:28;;;;;;;20.85;8.32;;;;;;;;;;4947377;29;20154;-74
2022/04/27 02:20:58;;;;;;;19.48;9.23;;;;;;;;;;4964885;28;20054;-74
2022/04/27 02:23:26;;;;;;;20.17;9.90;;;;;;;;;;4963209;28;20707;-74
2022/04/27 02:25:56;;;;;;;19.95;10.05;;;;;;;;;;4930975;28;20564;-74
2022/04/27 02:28:23;;;;;;;18.98;9.75;;;;;;;;;;4949845;28;20074;-75
2022/04/27 02:30:50;;;;;;;15.98;8.60;;;;;;;;;;4948448;28;20082;-74
2022/04/27 02:33:17;;;;;;;27.05;10.98;;;;;;;;;;4949281;28;20051;-74
2022/04/27 02:35:44;;;;;;;21.58;10.07;;;;;;;;;;4949467;28;20080;-74
2022/04/27 02:38:12;;;;;;;24.02;11.10;;;;;;;;;;4930698;29;20119;-74
2022/04/27 02:40:39;;;;;;;22.27;10.25;;;;;;;;;;4961018;23;20922;-74
2022/04/27 02:43:06;;;;;;;22.13;11.75;;;;;;;;;;4985400;28;20133;-74
2022/04/27 02:45:33;;;;;;;22.05;10.05;;;;;;;;;;4968966;28;20162;-74
2022/04/27 02:48:00;;;;;;;25.20;10.80;;;;;;;;;;4987360;28;20129;-74
2022/04/27 02:53:14;;;;;;;34.00;10.82;;;;;;;;;;4987022;28;20531;-74
2022/04/27 02:55:41;;;;;;;23.85;10.57;;;;;;;;;;4989991;28;20140;-74
2022/04/27 02:58:08;;;;;;;24.15;11.18;;;;;;;;;;4989386;28;20153;-75
2022/04/27 03:00:35;;;;;;;22.45;10.75;;;;;;;;;;4989883;28;20125;-74
2022/04/27 03:03:03;;;;;;;22.33;9.40;;;;;;;;;;4989375;28;20169;-74
2022/04/27 03:05:30;;;;;;;24.60;10.50;;;;;;;;;;4989452;28;20058;-74
2022/04/27 03:07:57;;;;;;;22.15;10.52;;;;;;;;;;4971363;28;20596;-74
2022/04/27 03:10:24;;;;;;;22.63;11.40;;;;;;;;;;4971693;28;20516;-74
2022/04/27 03:12:52;;;;;;;24.33;10.88;;;;;;;;;;4989431;28;20073;-74
2022/04/27 03:15:19;;;;;;;31.02;12.10;;;;;;;;;;4972304;28;20128;-74
2022/04/27 03:18:16;;;;;;;25.20;10.80;;;;;;;;;;4972358;28;20074;-75
2022/04/27 03:20:33;;;;;;;22.27;10.65;;;;;;;;;;4989290;28;20097;-74
2022/04/27 03:23:01;;;;;;;17.42;8.50;;;;;;;;;;4989293;28;20165;-74
2022/04/27 03:25:28;;;;;;;17.33;8.88;;;;;;;;;;4989074;28;20108;-74
2022/04/27 03:27:55;;;;;;;23.95;9.15;;;;;;;;;;4988421;28;20089;-74
2022/04/27 03:30:22;;;;;;;18.63;9.48;;;;;;;;;;4988717;28;20077;-74
2022/04/27 03:32:50;;;;;;;25.88;9.90;;;;;;;;;;4988609;28;20542;-74
2022/04/27 03:35:17;;;;;;;21.85;10.25;;;;;;;;;;4971554;28;20129;-74
2022/04/27 03:37:44;;;;;;;19.73;8.32;;;;;;;;;;4972749;28;20130;-73
2022/04/27 03:40:11;;;;;;;21.88;8.85;;;;;;;;;;4988469;28;20082;-74
2022/04/27 03:42:39;;;;;;;19.20;8.23;;;;;;;;;;4970778;28;20109;-74
2022/04/27 03:45:06;;;;;;;21.70;9.07;;;;;;;;;;4971419;28;20117;-74
2022/04/27 03:47:33;;;;;;;19.40;9.05;;;;;;;;;;4988514;28;20086;-74
2022/04/27 03:50:04;;;;;;;22.30;9.48;;;;;;;;;;4989407;28;20150;-74
2022/04/27 03:52:31;;;;;;;23.63;9.68;;;;;;;;;;4988550;28;20128;-74
2022/04/27 03:55:01;;;;;;;23.83;10.43;;;;;;;;;;4980383;28;20086;-74
2022/04/27 03:57:34;;;;;;;20.17;10.25;;;;;;;;;;4968728;28;20490;-74
2022/04/27 04:00:03;;;;;;;22.02;10.55;;;;;;;;;;4963169;28;20125;-74
2022/04/27 04:02:30;;;;;;;29.52;11.93;;;;;;;;;;4989635;28;20149;-74
2022/04/27 04:04:57;;;;;;;32.67;10.98;;;;;;;;;;4981434;28;20120;-75
2022/04/27 04:07:24;;;;;;;23.85;11.00;;;;;;;;;;4989392;28;20439;-74
2022/04/27 04:09:51;;;;;;;25.63;11.23;;;;;;;;;;5003835;28;20133;-74
2022/04/27 04:12:19;;;;;;;22.35;11.15;;;;;;;;;;4976848;28;20093;-74
2022/04/27 04:14:46;;;;;;;25.85;11.55;;;;;;;;;;4983528;28;20141;-74
2022/04/27 04:17:13;;;;;;;23.95;10.80;;;;;;;;;;4988914;28;20153;-74
2022/04/27 04:19:41;;;;;;;21.40;11.35;;;;;;;;;;4985141;28;20129;-75
2022/04/27 04:22:08;;;;;;;32.60;12.50;;;;;;;;;;4988338;28;20094;-74
2022/04/27 04:24:35;;;;;;;26.52;11.73;;;;;;;;;;4980306;28;20086;-74
2022/04/27 04:29:50;;;;;;;30.25;12.55;;;;;;;;;;4985703;28;20051;-74
2022/04/27 04:32:17;;;;;;;30.17;12.70;;;;;;;;;;4968893;28;20082;-74
2022/04/27 04:34:44;;;;;;;26.52;12.32;;;;;;;;;;4964302;28;20476;-74
2022/04/27 04:37:11;;;;;;;26.20;11.77;;;;;;;;;;4970348;28;20081;-74
2022/04/27 04:39:39;;;;;;;29.73;12.20;;;;;;;;;;4982269;23;20078;-70
2022/04/27 04:42:07;;;;;;;31.08;14.50;;;;;;;;;;4956023;28;20134;-70
2022/04/27 04:44:34;;;;;;;28.55;13.23;;;;;;;;;;4963648;28;20055;-70
2022/04/27 04:47:02;;;;;;;24.08;12.52;;;;;;;;;;4966779;28;20047;-70
2022/04/27 04:49:29;;;;;;;32.33;13.73;;;;;;;;;;4963636;28;20125;-70
2022/04/27 04:55:12;;;;;;;30.38;13.27;;;;;;;;;;4916494;29;20056;-74
2022/04/27 04:57:39;;;;;;;38.20;15.63;;;;;;;;;;4895482;29;20052;-74
2022/04/27 05:00:09;;;;;;;47.50;22.00;;;;;;;;;;4912469;29;20131;-74
2022/04/27 05:02:36;;;;;;;45.50;20.92;;;;;;;;;;4898925;29;20176;-74
2022/04/27 05:05:04;;;;;;;39.53;18.20;;;;;;;;;;4930053;29;20040;-74
2022/04/27 05:07:33;;;;;;;43.17;17.17;;;;;;;;;;4897638;29;20067;-74
2022/04/27 05:10:00;;;;;;;36.83;16.60;;;;;;;;;;4894231;29;20048;-76
2022/04/27 05:12:27;;;;;;;32.25;15.50;;;;;;;;;;4911005;29;20094;-74
2022/04/27 05:14:55;;;;;;;39.17;15.57;;;;;;;;;;4920512;29;20087;-74
2022/04/27 05:17:24;;;;;;;39.88;16.40;;;;;;;;;;4923197;23;20155;-72
2022/04/27 05:19:52;;;;;;;33.70;15.63;;;;;;;;;;4939948;29;20161;-71
2022/04/27 05:22:19;;;;;;;35.25;16.20;;;;;;;;;;4935748;29;20079;-71
2022/04/27 05:24:47;;;;;;;37.42;16.58;;;;;;;;;;4938257;29;20473;-71
2022/04/27 05:27:14;;;;;;;30.30;15.82;;;;;;;;;;4948858;29;20153;-72
2022/04/27 05:32:27;;;;;;;34.63;15.80;;;;;;;;;;4935866;29;20086;-71
2022/04/27 05:34:55;;;;;;;37.47;17.00;;;;;;;;;;4948000;29;20055;-72
2022/04/27 05:37:22;;;;;;;34.10;16.92;;;;;;;;;;4919165;29;20138;-72
2022/04/27 05:39:49;;;;;;;35.13;15.50;;;;;;;;;;4947775;29;20055;-71
2022/04/27 05:42:16;;;;;;;33.03;16.65;;;;;;;;;;4930918;29;20098;-73
2022/04/27 05:44:43;;;;;;;36.35;15.73;;;;;;;;;;4945330;29;20187;-71
2022/04/27 05:47:12;;;;;;;36.53;16.80;;;;;;;;;;4946040;29;20748;-71
2022/04/27 05:49:39;;;;;;;33.20;15.82;;;;;;;;;;4932517;29;20059;-71
2022/04/27 05:52:06;;;;;;;34.72;16.75;;;;;;;;;;4930517;29;20863;-71
2022/04/27 05:54:33;;;;;;;41.83;17.02;;;;;;;;;;4948643;28;20162;-71
2022/04/27 05:57:01;;;;;;;47.10;16.85;;;;;;;;;;4954780;28;20043;-71
2022/04/27 05:59:28;;;;;;;44.25;18.48;;;;;;;;;;4938286;29;20272;-71
2022/04/27 06:01:56;;;;;;;40.70;17.25;;;;;;;;;;4948258;29;20143;-71
2022/04/27 06:04:25;;;;;;;37.47;16.88;;;;;;;;;;4948529;29;20093;-71
2022/04/27 06:06:52;;;;;;;37.85;16.85;;;;;;;;;;4922612;29;20158;-71
2022/04/27 06:09:19;;;;;;;30.25;16.52;;;;;;;;;;4934218;29;20086;-71
2022/04/27 06:11:46;;;;;;;71.43;18.50;;;;;;;;;;4936839;29;20090;-72
2022/04/27 06:14:14;;;;;;;32.08;15.05;;;;;;;;;;4929199;29;20162;-71
2022/04/27 06:16:41;;;;;;;31.58;14.88;;;;;;;;;;4942486;29;20086;-71
2022/04/27 06:19:09;;;;;;;31.17;14.15;;;;;;;;;;4946843;29;20110;-71
2022/04/27 06:21:37;;;;;;;25.95;12.70;;;;;;;;;;4924766;29;20126;-72
2022/04/27 06:24:06;;;;;;;25.40;13.23;;;;;;;;;;4945539;29;20126;-71
2022/04/27 06:26:33;;;;;;;29.85;12.85;;;;;;;;;;4924478;29;20057;-71
2022/04/27 06:29:01;;;;;;;30.55;12.65;;;;;;;;;;4940108;29;20659;-72
2022/04/27 06:31:30;;;;;;;25.70;12.50;;;;;;;;;;4941817;29;20150;-72
2022/04/27 06:33:58;;;;;;;35.10;11.38;;;;;;;;;;4942111;29;20067;-72
2022/04/27 06:36:25;;;;;;;26.75;11.88;;;;;;;;;;4942115;29;20158;-72
2022/04/27 06:38:52;;;;;;;24.63;11.88;;;;;;;;;;4938485;29;20158;-72
2022/04/27 06:41:22;;;;;;;24.95;11.38;;;;;;;;;;4932056;29;20134;-71
2022/04/27 06:43:50;;;;;;;26.95;11.23;;;;;;;;;;4940115;28;20134;-71
2022/04/27 06:46:17;;;;;;;21.90;11.60;;;;;;;;;;4942937;29;20137;-72
2022/04/27 06:48:45;;;;;;;18.60;11.07;;;;;;;;;;4941987;29;20071;-72
2022/04/27 06:51:12;;;;;;;27.95;11.70;;;;;;;;;;4947591;28;20047;-72
2022/04/27 06:53:39;;;;;;;23.05;11.65;;;;;;;;;;4929844;29;20070;-72
2022/04/27 06:56:06;;;;;;;17.83;11.00;;;;;;;;;;4928064;29;20111;-71
2022/04/27 06:58:33;;;;;;;19.42;10.75;;;;;;;;;;4947868;29;20094;-72
2022/04/27 07:01:01;;;;;;;33.55;11.15;;;;;;;;;;4938889;29;20083;-72
2022/04/27 07:03:31;;;;;;;16.00;9.57;;;;;;;;;;4942531;29;20047;-72
2022/04/27 07:05:59;;;;;;;19.70;9.50;;;;;;;;;;4941561;29;20053;-72
2022/04/27 07:08:26;;;;;;;38.55;11.25;;;;;;;;;;4946418;29;20074;-72
2022/04/27 07:10:53;;;;;;;22.65;10.15;;;;;;;;;;4947530;29;20162;-72
2022/04/27 07:13:20;;;;;;;24.98;10.80;;;;;;;;;;4947865;29;20733;-73
2022/04/27 07:15:51;;;;;;;18.13;9.48;;;;;;;;;;4946466;29;20130;-70
2022/04/27 07:18:19;;;;;;;20.83;9.65;;;;;;;;;;4943767;28;20059;-70
2022/04/27 07:20:46;;;;;;;22.80;9.70;;;;;;;;;;4944258;29;20054;-70
2022/04/27 07:23:13;;;;;;;23.17;9.57;;;;;;;;;;4930774;29;20114;-71
2022/04/27 07:25:40;;;;;;;19.70;9.43;;;;;;;;;;4946300;29;20204;-70
2022/04/27 07:28:08;;;;;;;17.80;9.35;;;;;;;;;;4915659;29;20699;-70
2022/04/27 07:30:35;;;;;;;17.17;8.90;;;;;;;;;;4947047;29;20469;-70
2022/04/27 07:33:03;;;;;;;17.85;9.25;;;;;;;;;;4947839;28;20138;-70
2022/04/27 07:35:30;;;;;;;12.98;7.88;;;;;;;;;;4951314;29;20087;-70
2022/04/27 07:37:58;;;;;;;17.35;8.65;;;;;;;;;;4931379;29;20536;-70
2022/04/27 07:40:25;;;;;;;13.55;8.30;;;;;;;;;;4933108;29;20053;-70
2022/04/27 07:42:52;;;;;;;18.85;8.32;;;;;;;;;;4950954;29;20055;-70
2022/04/27 07:45:19;;;;;;;17.13;8.90;;;;;;;;;;4950965;29;20564;-70
2022/04/27 07:47:47;;;;;;;16.92;8.25;;;;;;;;;;4949492;29;20051;-70
2022/04/27 07:50:15;;;;;;;16.75;8.65;;;;;;;;;;4949751;29;20130;-70
2022/04/27 07:52:42;;;;;;;13.77;7.97;;;;;;;;;;4917611;29;20055;-70
2022/04/27 07:55:10;;;;;;;13.25;8.05;;;;;;;;;;4937728;29;20066;-70
2022/04/27 07:57:38;;;;;;;18.67;9.10;;;;;;;;;;4936048;29;20060;-70
2022/04/27 08:00:07;;;;;;;12.63;7.57;;;;;;;;;;4931496;29;20791;-70
2022/04/27 08:02:35;;;;;;;42.42;10.20;;;;;;;;;;4931617;29;20055;-70
2022/04/27 08:05:03;;;;;;;26.77;9.52;;;;;;;;;;4941158;29;20043;-71
2022/04/27 08:07:40;;;;;;;14.00;8.80;;;;;;;;;;4936080;29;20585;-70
2022/04/27 08:10:08;;;;;;;20.67;9.63;;;;;;;;;;4945407;29;20099;-71
2022/04/27 08:12:35;;;;;;;20.17;8.68;;;;;;;;;;4949342;29;20138;-71
2022/04/27 08:15:02;;;;;;;18.25;8.07;;;;;;;;;;4950048;29;20142;-70
2022/04/27 08:17:29;;;;;;;30.38;9.38;;;;;;;;;;4921539;29;20059;-70
2022/04/27 08:21:13;;;;;;;17.15;8.32;;;;;;;;;;4932707;29;20098;-70
2022/04/27 08:22:44;;;;;;;16.55;8.18;;;;;;;;;;4949257;28;20137;-70
2022/04/27 08:25:11;;;;;;;25.73;8.70;;;;;;;;;;4948914;29;20166;-70
2022/04/27 08:27:39;;;;;;;27.25;7.70;;;;;;;;;;4947657;29;20055;-70
2022/04/27 08:30:06;;;;;;;14.85;7.47;;;;;;;;;;4949969;29;20056;-70
2022/04/27 08:32:34;;;;;;;13.65;7.18;;;;;;;;;;4917646;29;20118;-70
2022/04/27 08:35:01;;;;;;;17.27;7.15;;;;;;;;;;4932020;29;20149;-70
2022/04/27 08:37:28;;;;;;;15.43;6.45;;;;;;;;;;4930303;29;20745;-70
2022/04/27 08:39:55;;;;;;;13.43;6.40;;;;;;;;;;4931880;29;20158;-70
2022/04/27 08:42:23;;;;;;;16.85;6.70;;;;;;;;;;4941082;29;20683;-70
2022/04/27 08:44:50;;;;;;;11.60;6.57;;;;;;;;;;4949049;28;20138;-70
2022/04/27 08:47:17;;;;;;;12.45;6.80;;;;;;;;;;4930985;29;20169;-70
2022/04/27 08:49:44;;;;;;;13.13;7.55;;;;;;;;;;4948055;29;20059;-70
2022/04/27 08:52:12;;;;;;;17.45;7.32;;;;;;;;;;4949045;29;20079;-70
2022/04/27 08:54:41;;;;;;;14.50;7.25;;;;;;;;;;4950419;29;20059;-70
2022/04/27 08:57:08;;;;;;;17.67;7.65;;;;;;;;;;4947734;29;20054;-70
2022/04/27 08:59:35;;;;;;;12.85;6.88;;;;;;;;;;4916721;29;20134;-70
2022/04/27 09:02:21;;;;;;;11.77;7.40;;;;;;;;;;4913544;29;20131;-71
2022/04/27 09:05:05;;;;;;;14.68;6.07;;;;;;;;;;4938616;29;20054;-70
2022/04/27 09:07:38;;;;;;;16.48;6.45;;;;;;;;;;4944979;29;20485;-70
2022/04/27 09:10:07;;;;;;;13.48;6.60;;;;;;;;;;4931242;29;20078;-71
2022/04/27 09:12:43;;;;;;;13.40;7.07;;;;;;;;;;4934498;29;20134;-71
2022/04/27 09:15:11;;;;;;;11.38;6.63;;;;;;;;;;4939004;29;20075;-71
2022/04/27 09:23:32;;;;;;;16.17;6.85;;;;;;;;;;4930543;29;20146;-71
2022/04/27 09:26:13;;;;;;;12.60;6.82;;;;;;;;;;4937465;29;20114;-70
2022/04/27 09:28:40;;;;;;;20.42;6.95;;;;;;;;;;4930051;29;20471;-71
2022/04/27 09:31:08;;;;;;;18.83;6.60;;;;;;;;;;4937601;28;20682;-70
2022/04/27 09:33:36;;;;;;;9.77;6.38;;;;;;;;;;4968212;28;20051;-71
2022/04/27 09:36:19;;;;;;;13.90;6.50;;;;;;;;;;4962509;28;20130;-71
2022/04/27 09:38:46;;;;;;;15.07;6.10;;;;;;;;;;4930194;29;20667;-72
2022/04/27 09:41:13;;;;;;;10.38;5.63;;;;;;;;;;4929845;29;20635;-71
2022/04/27 09:43:45;;;;;;;17.00;6.30;;;;;;;;;;4921882;29;20181;-71
2022/04/27 09:46:22;;;;;;;8.38;6.05;;;;;;;;;;4939657;28;20069;-72
2022/04/27 09:49:02;;;;;;;9.52;6.10;;;;;;;;;;4926523;29;20145;-71
2022/04/27 09:51:53;;;;;;;10.68;5.47;;;;;;;;;;4938830;29;20055;-71
2022/04/27 09:54:22;;;;;;;8.85;5.45;;;;;;;;;;4929329;29;20142;-72
2022/04/27 09:56:54;;;;;;;52.55;7.93;;;;;;;;;;4938770;28;20130;-72
2022/04/27 09:59:26;;;;;;;6.60;5.43;;;;;;;;;;4944574;28;20121;-72
2022/04/27 10:01:54;;;;;;;9.88;6.13;;;;;;;;;;4947544;29;20079;-71
2022/04/27 10:04:23;;;;;;;7.38;5.50;;;;;;;;;;4930667;29;20058;-71
2022/04/27 10:06:51;;;;;;;13.23;5.40;;;;;;;;;;4939771;29;20083;-71
2022/04/27 10:09:18;;;;;;;13.18;6.25;;;;;;;;;;4928578;29;20087;-71
2022/04/27 10:12:07;;;;;;;19.55;5.78;;;;;;;;;;4936757;29;20807;-71
2022/04/27 10:14:34;;;;;;;25.02;5.93;;;;;;;;;;4928761;29;20131;-71
2022/04/27 10:17:02;;;;;;;8.93;5.60;;;;;;;;;;4939276;29;20086;-72
2022/04/27 10:19:29;;;;;;;36.17;7.97;;;;;;;;;;4948493;29;20083;-72
2022/04/27 10:21:56;;;;;;;19.58;6.43;;;;;;;;;;4938686;29;20086;-74
2022/04/27 10:24:41;;;;;;;17.23;5.57;;;;;;;;;;4929387;29;20106;-73
2022/04/27 10:27:18;;;;;;;10.15;6.03;;;;;;;;;;4940935;29;20083;-73
2022/04/27 10:29:45;;;;;;;;;;;;;;;;;;4951506;28;20109;-71
2022/04/27 10:32:13;;;;;;;9.93;5.22;;;;;;;;;;4948093;28;20009;-70
2022/04/27 10:34:40;;;;;;;13.30;5.68;;;;;;;;;;4947427;28;20107;-71
2022/04/27 10:37:07;;;;;;;6.53;4.60;;;;;;;;;;4946647;29;20066;-71
2022/04/27 10:39:34;;;;;;;9.70;4.97;;;;;;;;;;4948635;29;20134;-71
2022/04/27 10:42:05;;;;;;;12.77;5.18;;;;;;;;;;4939285;29;20110;-71
2022/04/27 10:44:58;;;;;;;10.55;5.50;;;;;;;;;;4947913;29;20051;-72
2022/04/27 10:47:34;;;;;;;12.15;4.50;;;;;;;;;;4920737;29;20771;-71
2022/04/27 10:50:11;;;;;;;8.23;5.00;;;;;;;;;;4948144;29;20063;-71
2022/04/27 10:52:52;;;;;;;20.17;6.43;;;;;;;;;;4948374;29;20055;-71
2022/04/27 10:55:43;;;;;;;13.10;5.25;;;;;;;;;;4948258;29;20138;-71
2022/04/27 10:58:16;;;;;;;7.22;4.82;;;;;;;;;;4948265;28;20055;-71
2022/04/27 11:01:01;;;;;;;9.02;4.50;;;;;;;;;;4935036;29;20082;-71
2022/04/27 11:03:28;;;;;;;19.90;4.72;;;;;;;;;;4935339;28;20058;-72
2022/04/27 11:05:59;;;;;;;18.83;5.43;;;;;;;;;;4946351;28;20059;-72
2022/04/27 11:08:27;;;;;;;10.52;4.53;;;;;;;;;;4935054;28;20078;-72
2022/04/27 11:10:56;;;;;;;13.70;4.60;;;;;;;;;;4932962;29;20143;-71
2022/04/27 11:13:27;;;;;;;10.65;4.18;;;;;;;;;;4944231;29;20067;-71
2022/04/27 11:15:54;;;;;;;8.95;4.22;;;;;;;;;;4943693;29;20150;-71
2022/04/27 11:18:21;;;;;;;18.00;4.65;;;;;;;;;;4950867;29;20051;-71
2022/04/27 11:20:48;;;;;;;11.48;4.63;;;;;;;;;;4934140;29;20110;-71
2022/04/27 11:23:23;;;;;;;13.35;4.43;;;;;;;;;;4951066;29;20130;-71
2022/04/27 11:25:50;;;;;;;13.20;4.38;;;;;;;;;;4949468;29;20133;-71
2022/04/27 11:28:18;;;;;;;10.48;4.93;;;;;;;;;;4941743;29;20055;-71
2022/04/27 11:30:46;;;;;;;11.90;5.07;;;;;;;;;;4948878;29;20139;-71
2022/04/27 11:33:17;;;;;;;7.38;4.28;;;;;;;;;;4914948;29;20866;-71
2022/04/27 11:35:45;;;;;;;6.22;3.78;;;;;;;;;;4915297;29;20079;-71
2022/04/27 11:38:19;;;;;;;6.53;3.75;;;;;;;;;;4935107;29;20083;-71
2022/04/27 11:40:49;;;;;;;8.63;3.63;;;;;;;;;;4930864;29;20060;-71
2022/04/27 11:43:27;;;;;;;24.52;4.47;;;;;;;;;;4932533;29;20142;-71
2022/04/27 11:45:55;;;;;;;12.27;3.80;;;;;;;;;;4949981;29;20055;-70
2022/04/27 11:48:23;;;;;;;23.88;4.82;;;;;;;;;;4949757;29;20527;-71
2022/04/27 11:50:51;;;;;;;9.52;4.75;;;;;;;;;;4931120;29;20135;-70
2022/04/27 11:53:18;;;;;;;14.68;4.55;;;;;;;;;;4945261;29;20135;-70
2022/04/27 11:55:49;;;;;;;33.45;5.65;;;;;;;;;;4950542;29;20159;-70
2022/04/27 11:58:27;;;;;;;8.93;4.70;;;;;;;;;;4933511;29;20055;-70
2022/04/27 12:00:57;;;;;;;12.65;4.70;;;;;;;;;;4931744;29;20107;-70
2022/04/27 12:03:25;;;;;;;19.92;5.95;;;;;;;;;;4940998;29;20137;-70
2022/04/27 12:05:53;;;;;;;10.15;4.47;;;;;;;;;;4950569;29;20063;-70
2022/04/27 12:08:22;;;;;;;11.15;4.60;;;;;;;;;;4949257;29;20067;-70
2022/04/27 12:10:50;;;;;;;13.75;4.28;;;;;;;;;;4932984;29;20134;-70
2022/04/27 12:13:21;;;;;;;9.27;4.40;;;;;;;;;;4934001;29;20559;-70
2022/04/27 12:15:52;;;;;;;12.57;4.75;;;;;;;;;;4932996;29;20074;-70
2022/04/27 12:18:20;;;;;;;37.28;6.05;;;;;;;;;;4950923;29;20055;-70
2022/04/27 12:20:48;;;;;;;13.23;5.45;;;;;;;;;;4948761;28;20142;-70
2022/04/27 12:23:23;;;;;;;50.80;14.05;;;;;;;;;;4916889;29;20131;-70
2022/04/27 12:25:53;;;;;;;17.75;5.60;;;;;;;;;;4949484;29;20472;-70
2022/04/27 12:28:22;;;;;;;12.43;5.15;;;;;;;;;;4932411;29;20059;-70
2022/04/27 12:30:51;;;;;;;12.73;5.70;;;;;;;;;;4950832;29;20175;-70
2022/04/27 12:33:27;;;;;;;20.55;5.63;;;;;;;;;;4946559;29;20058;-70
2022/04/27 12:39:16;;;;;;;11.52;4.97;;;;;;;;;;4947790;29;20170;-71
2022/04/27 12:41:47;;;;;;;10.93;4.50;;;;;;;;;;4917748;29;20059;-71
2022/04/27 12:44:19;;;;;;;12.75;4.38;;;;;;;;;;4950302;29;20093;-71
2022/04/27 12:46:59;;;;;;;30.40;5.75;;;;;;;;;;4950070;29;20070;-71
2022/04/27 12:49:27;;;;;;;8.63;4.25;;;;;;;;;;4931225;29;20512;-71
2022/04/27 12:51:55;;;;;;;8.75;4.80;;;;;;;;;;4931225;29;20055;-71
2022/04/27 12:54:41;;;;;;;11.32;5.30;;;;;;;;;;4938248;29;20484;-70
2022/04/27 12:57:09;;;;;;;11.10;5.32;;;;;;;;;;4951848;28;20051;-70
2022/04/27 12:59:55;;;;;;;13.15;5.50;;;;;;;;;;4949845;29;20079;-70
2022/04/27 13:02:22;;;;;;;12.75;4.93;;;;;;;;;;4945521;29;20560;-71
2022/04/27 13:04:50;;;;;;;12.13;6.20;;;;;;;;;;4933171;29;20058;-71
2022/04/27 13:07:17;;;;;;;9.70;5.80;;;;;;;;;;4937229;29;20143;-71
2022/04/27 13:12:31;;;;;;;9.93;5.40;;;;;;;;;;4937529;29;20051;-71
2022/04/27 13:14:59;;;;;;;13.35;5.20;;;;;;;;;;4948410;29;20129;-71
2022/04/27 13:17:26;;;;;;;14.68;7.13;;;;;;;;;;4947133;29;20508;-71
2022/04/27 13:19:53;;;;;;;9.43;4.80;;;;;;;;;;4922424;29;20063;-70
2022/04/27 13:22:21;;;;;;;16.25;5.70;;;;;;;;;;4930598;29;20142;-71
2022/04/27 13:24:48;;;;;;;32.28;6.47;;;;;;;;;;4939617;29;20089;-71
2022/04/27 13:27:24;;;;;;;20.07;5.47;;;;;;;;;;4935996;29;20051;-71
2022/04/27 13:29:51;;;;;;;12.80;4.72;;;;;;;;;;4940067;29;20326;-70
2022/04/27 13:32:19;;;;;;;10.05;5.82;;;;;;;;;;4942466;28;20146;-70
2022/04/27 13:34:46;;;;;;;18.13;5.97;;;;;;;;;;4948295;29;20086;-71
2022/04/27 13:37:13;;;;;;;16.50;6.15;;;;;;;;;;4937093;29;20095;-70
2022/04/27 13:39:40;;;;;;;12.82;5.93;;;;;;;;;;4945564;29;20471;-71
2022/04/27 13:42:08;;;;;;;17.88;5.13;;;;;;;;;;4938038;29;20056;-71
2022/04/27 13:44:35;;;;;;;9.50;5.05;;;;;;;;;;4932538;29;20139;-71
2022/04/27 13:47:02;;;;;;;18.73;5.75;;;;;;;;;;4940619;29;20055;-70
2022/04/27 13:49:30;;;;;;;13.00;5.43;;;;;;;;;;4949289;29;20095;-70
2022/04/27 13:51:58;;;;;;;8.68;5.50;;;;;;;;;;4947955;29;20141;-70
2022/04/27 13:54:25;;;;;;;13.80;5.53;;;;;;;;;;4943140;29;20047;-70
2022/04/27 13:56:52;;;;;;;10.75;5.38;;;;;;;;;;4921691;29;20540;-71
2022/04/27 13:59:19;;;;;;;17.50;5.38;;;;;;;;;;4948984;29;20059;-70
2022/04/27 14:01:47;;;;;;;14.50;5.35;;;;;;;;;;4948605;29;20180;-70
2022/04/27 14:04:14;;;;;;;9.85;5.15;;;;;;;;;;4943075;28;20055;-70
2022/04/27 14:06:41;;;;;;;13.63;5.57;;;;;;;;;;4928375;29;20448;-70
2022/04/27 14:09:09;;;;;;;14.27;5.47;;;;;;;;;;4949204;29;20138;-70
2022/04/27 14:14:22;;;;;;;9.70;5.10;;;;;;;;;;4932853;29;20747;-70
2022/04/27 14:19:36;;;;;;;12.60;5.15;;;;;;;;;;4949065;29;20051;-70
2022/04/27 14:22:04;;;;;;;9.10;4.47;;;;;;;;;;4937534;29;20146;-70
2022/04/27 14:24:31;;;;;;;7.88;4.70;;;;;;;;;;4930892;29;20052;-71
2022/04/27 14:26:58;;;;;;;12.27;4.93;;;;;;;;;;4929174;29;20206;-70
2022/04/27 14:29:26;;;;;;;8.18;4.80;;;;;;;;;;4937033;29;20235;-70
2022/04/27 14:31:55;;;;;;;8.50;4.90;;;;;;;;;;4947481;29;20087;-71
2022/04/27 14:34:22;;;;;;;6.07;4.20;;;;;;;;;;4948087;29;20087;-71
2022/04/27 14:36:50;;;;;;;9.68;5.53;;;;;;;;;;4946791;29;20171;-72
2022/04/27 14:39:17;;;;;;;11.90;5.30;;;;;;;;;;4948232;29;20492;-71
2022/04/27 14:41:44;;;;;;;15.32;5.20;;;;;;;;;;4930687;29;20051;-72
2022/04/27 14:44:12;;;;;;;17.25;5.53;;;;;;;;;;4947795;28;20109;-72
2022/04/27 14:46:39;;;;;;;8.77;4.30;;;;;;;;;;4934231;29;20181;-72
2022/04/27 14:49:06;;;;;;;7.53;5.32;;;;;;;;;;4935233;29;20051;-71
2022/04/27 14:51:33;;;;;;;12.65;6.20;;;;;;;;;;4933473;29;20154;-71
2022/04/27 14:54:01;;;;;;;9.93;5.32;;;;;;;;;;4946547;28;20235;-72
2022/04/27 14:56:28;;;;;;;11.20;5.18;;;;;;;;;;4948525;28;20822;-73
2022/04/27 14:58:55;;;;;;;19.90;6.47;;;;;;;;;;4948349;28;20134;-72
2022/04/27 15:01:22;;;;;;;8.85;5.60;;;;;;;;;;4949944;29;20129;-72
2022/04/27 15:03:50;;;;;;;18.10;6.68;;;;;;;;;;4951185;29;20063;-73
2022/04/27 15:06:17;;;;;;;18.67;6.18;;;;;;;;;;4945432;29;20051;-72
2022/04/27 15:08:44;;;;;;;10.07;5.80;;;;;;;;;;4942290;29;20098;-72
2022/04/27 15:11:12;;;;;;;18.13;5.53;;;;;;;;;;4950642;29;20093;-73